createdAt,value
2022-08-17T00:00:43.055Z,98519.30
2022-08-17T00:03:10.479Z,98518.40
2022-08-17T00:05:44.802Z,98515.52
2022-08-17T00:08:15.453Z,98512.58
2022-08-17T00:10:45.651Z,98512.21
2022-08-17T00:13:21.751Z,98514.36
2022-08-17T00:15:50.130Z,98510.66
2022-08-17T00:19:00.360Z,98509.42
2022-08-17T00:21:10.943Z,98513.95
2022-08-17T00:23:44.439Z,98512.34
2022-08-17T00:26:34.677Z,98512.48
2022-08-17T00:29:08.862Z,98513.60
2022-08-17T00:31:37.697Z,98514.79
2022-08-17T00:34:08.917Z,98517.34
2022-08-17T00:36:37.497Z,98517.25
2022-08-17T00:39:06.049Z,98516.99
2022-08-17T00:41:35.931Z,98512.19
2022-08-17T00:44:06.629Z,98509.67
2022-08-17T00:46:40.478Z,98507.86
2022-08-17T00:49:10.546Z,98510.90
2022-08-17T00:51:41.359Z,98508.86
2022-08-17T00:54:16.744Z,98512.80
2022-08-17T00:56:51.195Z,98512.38
2022-08-17T00:59:22.831Z,98515.80
2022-08-17T01:03:29.014Z,98514.63
2022-08-17T01:06:01.004Z,98516.80
2022-08-17T01:08:31.199Z,98514.23
2022-08-17T01:11:05.588Z,98514.14
2022-08-17T01:13:41.488Z,98512.36
2022-08-17T01:16:18.606Z,98509.13
2022-08-17T01:18:50.810Z,98508.88
2022-08-17T01:21:42.224Z,98509.36
2022-08-17T01:24:10.754Z,98507.21
2022-08-17T01:26:43.534Z,98508.50
2022-08-17T01:29:13.298Z,98508.45
2022-08-17T01:31:49.009Z,98512.60
2022-08-17T01:34:18.446Z,98515.52
2022-08-17T01:36:49.061Z,98518.70
2022-08-17T01:39:23.495Z,98516.45
2022-08-17T01:41:58.784Z,98522.80
2022-08-17T01:44:28.168Z,98521.77
2022-08-17T01:46:56.525Z,98518.48
2022-08-17T01:49:25.203Z,98519.32
2022-08-17T01:51:53.761Z,98519.23
2022-08-17T01:54:24.104Z,98523.11
2022-08-17T01:56:53.126Z,98529.13
2022-08-17T01:59:21.488Z,98530.33
2022-08-17T02:01:50.841Z,98531.65
2022-08-17T02:04:19.431Z,98530.85
2022-08-17T02:06:53.378Z,98529.91
2022-08-17T02:09:26.259Z,98526.17
2022-08-17T02:12:37.252Z,98523.69
2022-08-17T02:14:52.296Z,98518.94
2022-08-17T02:17:20.963Z,98518.96
2022-08-17T02:19:51.851Z,98516.27
2022-08-17T02:22:20.228Z,98519.23
2022-08-17T02:25:01.018Z,98512.52
2022-08-17T02:27:30.815Z,98510.23
2022-08-17T02:29:59.777Z,98509.72
2022-08-17T02:32:28.743Z,98508.27
2022-08-17T02:34:58.476Z,98507.48
2022-08-17T02:37:28.917Z,98505.77
2022-08-17T02:39:58.816Z,98503.85
2022-08-17T02:42:34.252Z,98507.65
2022-08-17T02:45:05.640Z,98506.73
2022-08-17T02:47:35.004Z,98505.73
2022-08-17T02:50:05.174Z,98508.20
2022-08-17T02:52:42.828Z,98513.95
2022-08-17T02:55:22.507Z,98520.41
2022-08-17T02:57:51.469Z,98523.00
2022-08-17T03:00:23.531Z,98522.53
2022-08-17T03:02:53.040Z,98520.09
2022-08-17T03:05:23.766Z,98518.39
2022-08-17T03:07:52.436Z,98517.94
2022-08-17T03:10:22.206Z,98519.31
2022-08-17T03:12:51.087Z,98519.96
2022-08-17T03:15:26.223Z,98526.86
2022-08-17T03:17:56.973Z,98531.42
2022-08-17T03:20:25.674Z,98531.60
2022-08-17T03:22:56.615Z,98529.80
2022-08-17T03:25:34.564Z,98534.29
2022-08-17T03:28:04.384Z,98531.27
2022-08-17T03:30:33.266Z,98533.17
2022-08-17T03:33:04.559Z,98536.74
2022-08-17T03:35:37.045Z,98538.95
2022-08-17T03:38:05.923Z,98540.02
2022-08-17T03:40:55.423Z,98533.95
2022-08-17T03:43:23.409Z,98537.73
2022-08-17T03:46:32.457Z,98536.13
2022-08-17T03:49:18.300Z,98541.63
2022-08-17T03:52:05.249Z,98542.27
2022-08-17T03:54:52.829Z,98543.08
2022-08-17T03:57:21.938Z,98538.23
2022-08-17T03:59:51.136Z,98537.16
2022-08-17T04:02:24.330Z,98541.91
2022-08-17T04:04:54.412Z,98542.77
2022-08-17T04:07:28.302Z,98545.98
2022-08-17T04:09:58.325Z,98553.35
2022-08-17T04:12:31.340Z,98558.86
2022-08-17T04:14:59.743Z,98557.20
2022-08-17T04:17:29.490Z,98557.77
2022-08-17T04:19:58.198Z,98555.69
2022-08-17T04:22:30.978Z,98555.09
2022-08-17T04:25:18.655Z,98561.61
2022-08-17T04:27:48.882Z,98561.47
2022-08-17T04:30:17.297Z,98561.27
2022-08-17T04:33:06.157Z,98564.20
2022-08-17T04:35:54.127Z,98569.77
2022-08-17T04:38:25.900Z,98571.61
2022-08-17T04:41:13.395Z,98575.28
2022-08-17T04:43:44.058Z,98571.27
2022-08-17T04:46:16.125Z,98575.31
2022-08-17T04:48:49.840Z,98574.95
2022-08-17T04:51:29.437Z,98576.94
2022-08-17T04:54:01.288Z,98581.38
2022-08-17T04:56:31.159Z,98579.10
2022-08-17T04:59:21.525Z,98581.19
2022-08-17T05:01:51.955Z,98587.27
2022-08-17T05:04:33.845Z,98587.52
2022-08-17T05:07:04.383Z,98592.27
2022-08-17T05:09:33.814Z,98596.71
2022-08-17T05:12:02.624Z,98599.37
2022-08-17T05:14:33.037Z,98603.27
2022-08-17T05:17:07.088Z,98606.70
2022-08-17T05:19:37.894Z,98603.88
2022-08-17T05:22:06.597Z,98607.02
2022-08-17T05:24:38.279Z,98606.76
2022-08-17T05:27:07.811Z,98604.38
2022-08-17T05:29:36.996Z,98606.87
2022-08-17T05:32:38.000Z,98604.56
2022-08-17T05:35:01.092Z,98607.08
2022-08-17T05:37:30.184Z,98610.58
2022-08-17T05:40:01.264Z,98611.11
2022-08-17T05:42:29.676Z,98613.71
2022-08-17T05:44:59.036Z,98614.00
2022-08-17T05:47:27.850Z,98614.73
2022-08-17T05:49:56.683Z,98610.17
2022-08-17T05:52:25.404Z,98611.88
2022-08-17T05:55:23.150Z,98615.77
2022-08-17T05:58:23.681Z,98620.41
2022-08-17T06:01:10.254Z,98623.92
2022-08-17T06:04:32.615Z,98628.31
2022-08-17T06:07:25.087Z,98629.48
2022-08-17T06:10:17.692Z,98626.55
2022-08-17T06:13:07.954Z,98623.88
2022-08-17T06:16:34.175Z,98625.08
2022-08-17T06:19:27.213Z,98627.52
2022-08-17T06:21:56.615Z,98626.29
2022-08-17T06:24:39.969Z,98627.67
2022-08-17T06:27:20.022Z,98631.04
2022-08-17T06:30:00.927Z,98632.02
2022-08-17T06:32:29.795Z,98632.80
2022-08-17T06:35:00.997Z,98637.13
2022-08-17T06:38:09.432Z,98640.27
2022-08-17T06:40:54.202Z,98635.41
2022-08-17T06:43:39.965Z,98636.91
2022-08-17T06:46:08.188Z,98634.36
2022-08-17T06:48:47.510Z,98631.48
2022-08-17T06:51:42.383Z,98631.52
2022-08-17T06:54:19.963Z,98630.23
2022-08-17T06:56:59.726Z,98630.44
2022-08-17T06:59:54.858Z,98631.26
2022-08-17T07:02:52.680Z,98627.23
2022-08-17T07:05:30.814Z,98629.26
2022-08-17T07:08:16.785Z,98631.55
2022-08-17T07:10:57.233Z,98632.73
2022-08-17T07:13:31.423Z,98638.21
2022-08-17T07:16:23.784Z,98636.40
2022-08-17T07:18:54.800Z,98636.11
2022-08-17T07:21:56.365Z,98637.16
2022-08-17T07:24:37.391Z,98641.09
2022-08-17T07:27:17.426Z,98639.79
2022-08-17T07:29:50.935Z,98637.96
2022-08-17T07:32:24.508Z,98639.19
2022-08-17T07:34:59.989Z,98641.94
2022-08-17T07:37:28.685Z,98639.14
2022-08-17T07:40:15.487Z,98642.25
2022-08-17T07:43:04.950Z,98643.43
2022-08-17T07:45:54.426Z,98643.33
2022-08-17T07:48:26.260Z,98644.13
2022-08-17T07:50:55.226Z,98642.96
2022-08-17T07:53:25.982Z,98642.34
2022-08-17T07:55:54.532Z,98643.55
2022-08-17T07:58:24.328Z,98640.17
2022-08-17T08:01:15.605Z,98642.30
2022-08-17T08:03:46.366Z,98643.77
2022-08-17T08:06:24.586Z,98644.61
2022-08-17T08:08:56.048Z,98639.79
2022-08-17T08:11:34.138Z,98638.66
2022-08-17T08:14:28.228Z,98637.44
2022-08-17T08:17:03.509Z,98633.56
2022-08-17T08:19:33.437Z,98634.77
2022-08-17T08:22:11.955Z,98634.90
2022-08-17T08:24:59.117Z,98637.89
2022-08-17T08:27:39.182Z,98641.66
2022-08-17T08:30:12.308Z,98641.85
2022-08-17T08:32:50.436Z,98644.58
2022-08-17T08:35:33.076Z,98646.11
2022-08-17T08:38:27.043Z,98651.56
2022-08-17T08:41:05.753Z,98651.27
2022-08-17T08:43:52.229Z,98653.57
2022-08-17T08:46:53.270Z,98650.83
2022-08-17T08:50:02.549Z,98650.23
2022-08-17T08:52:46.756Z,98653.31
2022-08-17T08:55:35.738Z,98655.48
2022-08-17T08:58:32.093Z,98652.91
2022-08-17T09:01:09.339Z,98648.48
2022-08-17T09:04:19.966Z,98649.86
2022-08-17T09:07:04.221Z,98649.38
2022-08-17T09:10:03.351Z,98647.94
2022-08-17T09:12:53.445Z,98642.79
2022-08-17T09:15:27.793Z,98640.95
2022-08-17T09:21:11.691Z,98644.34
2022-08-17T09:24:04.997Z,98644.91
2022-08-17T09:27:11.656Z,98644.98
2022-08-17T09:29:48.352Z,98648.88
2022-08-17T09:32:31.374Z,98645.18
2022-08-17T09:35:06.008Z,98648.13
2022-08-17T09:37:43.348Z,98644.63
2022-08-17T09:40:21.429Z,98643.40
2022-08-17T09:43:08.843Z,98642.77
2022-08-17T09:45:51.599Z,98645.34
2022-08-17T09:48:25.894Z,98643.86
2022-08-17T09:51:04.759Z,98646.39
2022-08-17T09:53:38.174Z,98644.96
2022-08-17T09:56:17.708Z,98642.48
2022-08-17T09:58:57.788Z,98647.15
2022-08-17T10:01:56.222Z,98644.83
2022-08-17T10:04:50.101Z,98641.70
2022-08-17T10:07:46.702Z,98643.82
2022-08-17T10:10:25.701Z,98646.58
2022-08-17T10:13:16.864Z,98648.48
2022-08-17T10:16:14.850Z,98645.23
2022-08-17T10:18:43.369Z,98643.07
2022-08-17T10:21:33.474Z,98646.23
2022-08-17T10:24:25.873Z,98642.31
2022-08-17T10:26:57.978Z,98636.83
2022-08-17T10:29:29.513Z,98634.55
2022-08-17T10:32:09.399Z,98639.19
2022-08-17T10:34:41.195Z,98635.32
2022-08-17T10:37:28.645Z,98636.73
2022-08-17T10:40:15.380Z,98644.10
2022-08-17T10:42:43.895Z,98644.92
2022-08-17T10:45:26.461Z,98644.36
2022-08-17T10:48:06.879Z,98644.80
2022-08-17T10:51:07.812Z,98646.39
2022-08-17T10:53:36.108Z,98645.58
2022-08-17T10:56:12.819Z,98651.69
2022-08-17T10:58:55.456Z,98650.09
2022-08-17T11:01:33.040Z,98652.36
2022-08-17T11:04:42.220Z,98650.59
2022-08-17T11:07:26.063Z,98657.05
2022-08-17T11:10:25.809Z,98653.80
2022-08-17T11:13:08.011Z,98654.31
2022-08-17T11:15:59.118Z,98647.24
2022-08-17T11:18:58.011Z,98647.70
2022-08-17T11:22:09.671Z,98651.23
2022-08-17T11:24:44.849Z,98651.41
2022-08-17T11:27:53.904Z,98645.14
2022-08-17T11:30:43.495Z,98648.80
2022-08-17T11:33:41.761Z,98643.40
2022-08-17T11:36:31.905Z,98642.63
2022-08-17T11:39:18.863Z,98644.86
2022-08-17T11:42:20.199Z,98639.48
2022-08-17T11:44:58.924Z,98645.91
2022-08-17T11:48:25.949Z,98640.26
2022-08-17T11:51:12.240Z,98644.55
2022-08-17T11:53:40.672Z,98646.05
2022-08-17T11:56:29.148Z,98645.27
2022-08-17T11:58:58.878Z,98639.61
2022-08-17T12:01:27.264Z,98637.30
2022-08-17T12:04:24.597Z,98637.55
2022-08-17T12:06:59.865Z,98638.33
2022-08-17T12:09:33.618Z,98640.23
2022-08-17T12:12:16.865Z,98640.84
2022-08-17T12:15:10.044Z,98640.98
2022-08-17T12:17:42.727Z,98637.70
2022-08-17T12:20:43.693Z,98633.77
2022-08-17T12:23:40.159Z,98625.19
2022-08-17T12:26:19.643Z,98623.45
2022-08-17T12:28:51.871Z,98625.09
2022-08-17T12:31:25.050Z,98624.54
2022-08-17T12:33:54.196Z,98621.24
2022-08-17T12:36:25.237Z,98618.63
2022-08-17T12:39:12.815Z,98616.23
2022-08-17T12:41:46.959Z,98617.27
2022-08-17T12:44:29.017Z,98621.86
2022-08-17T12:47:22.403Z,98621.94
2022-08-17T12:49:53.624Z,98622.42
2022-08-17T12:52:28.487Z,98625.44
2022-08-17T12:55:18.271Z,98619.02
2022-08-17T12:57:49.608Z,98613.92
2022-08-17T13:00:41.485Z,98612.29
2022-08-17T13:03:21.918Z,98605.55
2022-08-17T13:05:52.872Z,98604.17
2022-08-17T13:08:29.667Z,98610.56
2022-08-17T13:11:18.537Z,98609.49
2022-08-17T13:13:56.873Z,98612.57
2022-08-17T13:16:28.195Z,98613.20
2022-08-17T13:19:09.923Z,98613.28
2022-08-17T13:21:48.428Z,98613.59
2022-08-17T13:24:21.278Z,98611.11
2022-08-17T13:26:59.468Z,98607.55
2022-08-17T13:29:51.491Z,98610.25
2022-08-17T13:32:45.031Z,98615.02
2022-08-17T13:35:39.523Z,98612.88
2022-08-17T13:38:08.517Z,98608.98
2022-08-17T13:40:41.800Z,98607.83
2022-08-17T13:43:11.040Z,98608.88
2022-08-17T13:45:51.207Z,98605.97
2022-08-17T13:48:24.215Z,98605.17
2022-08-17T13:50:54.947Z,98609.42
2022-08-17T13:53:27.044Z,98611.83
2022-08-17T13:55:58.769Z,98614.89
2022-08-17T13:58:28.324Z,98614.05
2022-08-17T14:00:56.907Z,98614.34
2022-08-17T14:03:25.181Z,98619.48
2022-08-17T14:05:53.802Z,98618.93
2022-08-17T14:08:22.215Z,98619.00
2022-08-17T14:10:58.038Z,98619.18
2022-08-17T14:13:26.277Z,98619.65
2022-08-17T14:15:56.559Z,98618.08
2022-08-17T14:18:41.990Z,98618.89
2022-08-17T14:21:13.652Z,98619.17
2022-08-17T14:23:43.598Z,98624.53
2022-08-17T14:26:17.889Z,98624.55
2022-08-17T14:28:56.253Z,98623.69
2022-08-17T14:31:25.466Z,98621.94
2022-08-17T14:33:53.922Z,98625.06
2022-08-17T14:36:22.235Z,98619.89
2022-08-17T14:38:51.172Z,98618.06
2022-08-17T14:41:22.184Z,98615.85
2022-08-17T14:43:53.529Z,98611.64
2022-08-17T14:46:21.757Z,98615.48
2022-08-17T14:48:57.075Z,98618.61
2022-08-17T14:51:29.666Z,98621.66
2022-08-17T14:53:58.155Z,98619.40
2022-08-17T14:56:26.614Z,98620.77
2022-08-17T14:58:55.125Z,98623.98
2022-08-17T15:01:25.038Z,98620.85
2022-08-17T15:03:54.060Z,98618.58
2022-08-17T15:06:22.555Z,98615.90
2022-08-17T15:08:50.742Z,98616.40
2022-08-17T15:11:19.204Z,98616.12
2022-08-17T15:13:52.023Z,98625.70
2022-08-17T15:16:20.971Z,98634.92
2022-08-17T15:18:50.342Z,98637.64
2022-08-17T15:21:19.055Z,98636.67
2022-08-17T15:23:47.821Z,98637.05
2022-08-17T15:26:16.851Z,98636.67
2022-08-17T15:28:49.937Z,98639.29
2022-08-17T15:31:31.658Z,98636.76
2022-08-17T15:34:00.652Z,98640.05
2022-08-17T15:36:29.013Z,98644.52
2022-08-17T15:38:58.987Z,98647.78
2022-08-17T15:41:28.264Z,98646.46
2022-08-17T15:43:56.538Z,98643.91
2022-08-17T15:46:26.106Z,98638.45
2022-08-17T15:48:59.155Z,98636.70
2022-08-17T15:51:30.577Z,98630.11
2022-08-17T15:54:19.249Z,98628.30
2022-08-17T15:56:51.238Z,98627.38
2022-08-17T15:59:19.743Z,98629.75
2022-08-17T16:03:11.127Z,98633.48
2022-08-17T16:04:43.235Z,98631.28
2022-08-17T16:07:12.356Z,98628.83
2022-08-17T16:09:40.750Z,98626.11
2022-08-17T16:12:17.831Z,98629.60
2022-08-17T16:14:47.883Z,98629.27
2022-08-17T16:17:38.734Z,98638.50
2022-08-17T16:20:19.895Z,98637.61
2022-08-17T16:22:50.074Z,98640.96
2022-08-17T16:25:38.871Z,98642.20
2022-08-17T16:28:20.027Z,98641.63
2022-08-17T16:30:48.509Z,98641.08
2022-08-17T16:33:17.052Z,98644.36
2022-08-17T16:35:45.359Z,98646.52
2022-08-17T16:38:13.532Z,98645.71
2022-08-17T16:40:42.488Z,98644.23
2022-08-17T16:43:12.172Z,98645.88
2022-08-17T16:45:40.863Z,98647.70
2022-08-17T16:48:10.215Z,98648.00
2022-08-17T16:50:38.302Z,98649.62
2022-08-17T16:53:16.341Z,98647.80
2022-08-17T16:55:46.045Z,98649.46
2022-08-17T16:58:15.268Z,98653.20
2022-08-17T17:00:45.339Z,98655.26
2022-08-17T17:03:20.737Z,98649.72
2022-08-17T17:06:13.775Z,98650.43
2022-08-17T17:09:16.901Z,98654.88
2022-08-17T17:11:57.663Z,98655.45
2022-08-17T17:14:30.317Z,98652.86
2022-08-17T17:17:01.422Z,98653.40
2022-08-17T17:19:56.895Z,98655.69
2022-08-17T17:22:47.148Z,98662.41
2022-08-17T17:25:31.037Z,98658.94
2022-08-17T17:28:14.783Z,98659.63
2022-08-17T17:30:52.472Z,98663.41
2022-08-17T17:33:32.878Z,98664.30
2022-08-17T17:36:33.143Z,98663.35
2022-08-17T17:39:13.808Z,98671.42
2022-08-17T17:41:44.419Z,98672.67
2022-08-17T17:44:18.004Z,98673.14
2022-08-17T17:46:56.712Z,98677.23
2022-08-17T17:49:35.844Z,98674.95
2022-08-17T17:52:14.332Z,98680.69
2022-08-17T17:54:48.089Z,98680.71
2022-08-17T17:57:51.627Z,98680.10
2022-08-17T18:00:30.393Z,98677.91
2022-08-17T18:03:16.850Z,98683.89
2022-08-17T18:05:55.348Z,98688.84
2022-08-17T18:08:45.735Z,98691.44
2022-08-17T18:11:24.540Z,98692.44
2022-08-17T18:14:05.290Z,98695.28
2022-08-17T18:16:35.891Z,98701.52
2022-08-17T18:19:04.019Z,98697.92
2022-08-17T18:21:38.216Z,98697.22
2022-08-17T18:24:08.733Z,98694.39
2022-08-17T18:26:42.039Z,98695.01
2022-08-17T18:29:46.969Z,98700.52
2022-08-17T18:32:29.431Z,98701.86
2022-08-17T18:34:59.643Z,98700.33
2022-08-17T18:37:51.731Z,98700.98
2022-08-17T18:40:20.131Z,98702.07
2022-08-17T18:43:12.539Z,98703.74
2022-08-17T18:45:50.124Z,98700.90
2022-08-17T18:48:23.873Z,98704.39
2022-08-17T18:50:54.910Z,98704.27
2022-08-17T18:53:34.004Z,98706.02
2022-08-17T18:56:30.954Z,98705.50
2022-08-17T18:59:20.824Z,98707.96
2022-08-17T19:02:15.304Z,98708.38
2022-08-17T19:05:26.816Z,98712.16
2022-08-17T19:08:31.645Z,98711.16
2022-08-17T19:11:35.431Z,98713.35
2022-08-17T19:14:06.912Z,98719.91
2022-08-17T19:16:43.566Z,98722.61
2022-08-17T19:19:23.395Z,98721.35
2022-08-17T19:21:56.374Z,98720.70
2022-08-17T19:24:30.739Z,98723.86
2022-08-17T19:27:14.421Z,98725.73
2022-08-17T19:30:08.359Z,98724.02
2022-08-17T19:32:38.079Z,98728.84
2022-08-17T19:35:12.452Z,98734.01
2022-08-17T19:37:53.634Z,98730.91
2022-08-17T19:41:06.322Z,98733.61
2022-08-17T19:43:49.699Z,98733.89
2022-08-17T19:46:49.837Z,98734.25
2022-08-17T19:49:40.819Z,98735.27
2022-08-17T19:52:38.688Z,98744.23
2022-08-17T19:55:35.979Z,98751.27
2022-08-17T19:58:07.759Z,98760.15
2022-08-17T20:00:47.252Z,98757.38
2022-08-17T20:03:41.849Z,98755.86
2022-08-17T20:06:13.858Z,98745.20
2022-08-17T20:09:01.086Z,98741.06
2022-08-17T20:11:41.649Z,98737.45
2022-08-17T20:14:23.739Z,98744.38
2022-08-17T20:16:52.828Z,98738.95
2022-08-17T20:19:29.296Z,98739.66
2022-08-17T20:22:29.287Z,98743.80
2022-08-17T20:25:08.503Z,98747.33
2022-08-17T20:27:49.895Z,98749.45
2022-08-17T20:30:24.333Z,98749.34
2022-08-17T20:32:57.523Z,98749.86
2022-08-17T20:35:37.873Z,98748.55
2022-08-17T20:38:12.336Z,98748.64
2022-08-17T20:41:01.297Z,98749.70
2022-08-17T20:43:35.448Z,98743.70
2022-08-17T20:46:20.026Z,98743.63
2022-08-17T20:48:57.187Z,98740.30
2022-08-17T20:51:39.557Z,98740.02
2022-08-17T20:54:16.787Z,98741.27
2022-08-17T20:56:45.109Z,98738.80
2022-08-17T20:59:26.147Z,98741.02
2022-08-17T21:02:08.950Z,98742.70
2022-08-17T21:04:53.021Z,98738.41
2022-08-17T21:07:42.659Z,98735.88
2022-08-17T21:10:17.432Z,98733.17
2022-08-17T21:12:51.858Z,98732.34
2022-08-17T21:15:31.078Z,98735.35
2022-08-17T21:18:09.662Z,98737.61
2022-08-17T21:20:49.787Z,98741.70
2022-08-17T21:23:40.374Z,98740.55
2022-08-17T21:26:11.412Z,98739.00
2022-08-17T21:29:29.557Z,98740.75
2022-08-17T21:32:15.865Z,98744.73
2022-08-17T21:35:06.729Z,98740.70
2022-08-17T21:37:50.833Z,98742.78
2022-08-17T21:40:25.697Z,98742.48
2022-08-17T21:43:11.295Z,98741.96
2022-08-17T21:45:42.994Z,98737.58
2022-08-17T21:48:14.212Z,98740.24
2022-08-17T21:50:57.877Z,98745.80
2022-08-17T21:53:36.950Z,98742.43
2022-08-17T21:56:07.035Z,98741.59
2022-08-17T21:58:40.500Z,98740.24
2022-08-17T22:01:35.243Z,98741.02
2022-08-17T22:04:18.351Z,98741.00
2022-08-17T22:06:56.729Z,98739.30
2022-08-17T22:09:34.346Z,98737.61
2022-08-17T22:12:02.567Z,98737.24
2022-08-17T22:14:52.848Z,98738.91
2022-08-17T22:17:29.209Z,98733.87
2022-08-17T22:20:06.908Z,98733.14
2022-08-17T22:22:59.894Z,98733.48
2022-08-17T22:25:29.762Z,98734.28
2022-08-17T22:28:06.775Z,98728.02
2022-08-17T22:30:56.615Z,98721.77
2022-08-17T22:33:33.586Z,98719.57
2022-08-17T22:36:12.525Z,98719.85
2022-08-17T22:38:43.616Z,98718.05
2022-08-17T22:41:17.935Z,98715.77
2022-08-17T22:43:46.188Z,98711.30
2022-08-17T22:46:15.496Z,98704.91
2022-08-17T22:48:54.350Z,98704.20
2022-08-17T22:51:25.979Z,98704.11
2022-08-17T22:54:35.553Z,98701.50
2022-08-17T22:57:34.365Z,98696.33
2022-08-17T23:00:03.295Z,98699.07
2022-08-17T23:02:34.134Z,98698.64
2022-08-17T23:05:12.976Z,98700.07
2022-08-17T23:07:42.435Z,98703.60
2022-08-17T23:10:13.605Z,98700.02
2022-08-17T23:12:42.099Z,98697.31
2022-08-17T23:15:16.610Z,98696.33
2022-08-17T23:17:46.062Z,98699.15
2022-08-17T23:20:16.049Z,98701.21
2022-08-17T23:22:52.419Z,98703.10
2022-08-17T23:25:28.283Z,98708.44
2022-08-17T23:28:01.872Z,98714.26
2022-08-17T23:30:32.896Z,98714.96
2022-08-17T23:33:05.445Z,98719.08
2022-08-17T23:35:40.242Z,98724.16
2022-08-17T23:38:10.719Z,98731.21
2022-08-17T23:40:40.371Z,98737.40
2022-08-17T23:43:23.881Z,98743.61
2022-08-17T23:46:00.840Z,98749.73
2022-08-17T23:48:35.823Z,98754.30
2022-08-17T23:51:10.308Z,98761.17
2022-08-17T23:53:47.594Z,98759.09
2022-08-17T23:56:19.463Z,98756.85
2022-08-17T23:58:47.690Z,98757.05
